createdAt,value
2019-04-04T00:10:06.967Z,11.00
2019-04-04T00:20:12.800Z,11.20
2019-04-04T00:30:20.741Z,11.40
2019-04-04T00:40:26.513Z,11.30
2019-04-04T00:50:32.148Z,11.70
2019-04-04T01:00:37.968Z,11.90
2019-04-04T01:10:43.665Z,12.00
2019-04-04T01:20:50.669Z,12.30
2019-04-04T01:30:56.591Z,12.30
2019-04-04T01:41:04.491Z,12.20
2019-04-04T01:51:09.737Z,12.00
2019-04-04T02:01:16.640Z,11.90
2019-04-04T02:11:22.781Z,11.90
2019-04-04T02:21:29.195Z,11.90
2019-04-04T02:31:36.882Z,11.90
2019-04-04T02:41:47.552Z,11.90
2019-04-04T02:51:51.148Z,11.80
2019-04-04T03:01:56.989Z,11.80
2019-04-04T03:12:02.696Z,11.60
2019-04-04T03:22:08.391Z,11.60
2019-04-04T03:32:16.261Z,11.60
2019-04-04T03:42:26.638Z,11.70
2019-04-04T03:52:32.370Z,11.60
2019-04-04T04:02:38.181Z,11.60
2019-04-04T04:12:43.978Z,11.60
2019-04-04T04:22:51.063Z,11.50
2019-04-04T04:32:58.212Z,11.60
2019-04-04T04:43:04.969Z,13.80
2019-04-04T04:53:11.616Z,9.10
2019-04-04T05:03:19.173Z,11.80
2019-04-04T05:13:28.593Z,11.70
2019-04-04T05:23:32.159Z,11.90
2019-04-04T05:33:37.838Z,12.00
2019-04-04T05:43:43.497Z,12.10
2019-04-04T05:53:50.426Z,12.20
2019-04-04T06:03:56.061Z,12.40
2019-04-04T06:14:01.595Z,12.60
2019-04-04T06:24:07.195Z,12.80
2019-04-04T06:34:13.403Z,13.00
2019-04-04T06:44:18.925Z,13.20
2019-04-04T06:54:25.519Z,13.40
2019-04-04T07:04:34.212Z,13.60
2019-04-04T07:14:45.780Z,14.00
2019-04-04T07:24:45.879Z,14.40
2019-04-04T07:34:57.235Z,14.70
2019-04-04T07:45:05.932Z,15.10
2019-04-04T07:55:18.233Z,15.20
2019-04-04T08:05:26.039Z,15.40
2019-04-04T08:15:40.234Z,15.70
2019-04-04T08:25:45.746Z,15.90
2019-04-04T08:35:51.368Z,16.10
2019-04-04T08:45:56.954Z,16.50
2019-04-04T08:56:02.551Z,16.70
2019-04-04T09:06:08.074Z,17.00
2019-04-04T09:16:13.644Z,17.30
2019-04-04T09:26:19.239Z,17.70
2019-04-04T09:36:24.883Z,17.90
2019-04-04T09:46:31.527Z,18.00
2019-04-04T09:56:37.076Z,18.10
2019-04-04T10:06:42.683Z,18.50
2019-04-04T10:16:48.182Z,19.70
2019-04-04T10:26:53.682Z,19.00
2019-04-04T10:36:59.214Z,19.50
2019-04-04T10:47:05.835Z,19.90
2019-04-04T10:57:11.443Z,19.90
2019-04-04T11:07:16.979Z,20.40
2019-04-04T11:17:22.508Z,20.40
2019-04-04T11:27:28.075Z,20.60
2019-04-04T11:37:33.907Z,20.50
2019-04-04T11:47:39.474Z,20.80
2019-04-04T11:57:45.007Z,21.20
2019-04-04T12:07:50.634Z,21.30
2019-04-04T12:28:01.209Z,21.90
2019-04-04T12:38:06.739Z,22.20
2019-04-04T12:48:12.285Z,22.10
2019-04-04T12:58:18.794Z,21.80
2019-04-04T13:08:24.405Z,21.60
2019-04-04T13:18:29.904Z,22.20
2019-04-04T13:28:35.375Z,21.30
2019-04-04T13:38:40.985Z,21.50
2019-04-04T13:48:46.542Z,21.20
2019-04-04T14:29:26.772Z,22.20
2019-04-04T14:39:21.879Z,22.50
2019-04-04T14:59:57.483Z,21.50
2019-04-04T15:10:03.226Z,21.00
2019-04-04T15:20:09.227Z,20.30
2019-04-04T15:30:15.641Z,20.20
2019-04-04T15:40:21.652Z,21.10
2019-04-04T15:50:27.363Z,21.00
2019-04-04T16:00:32.997Z,20.70
2019-04-04T16:10:38.755Z,20.60
2019-04-04T16:20:44.622Z,20.40
2019-04-04T16:30:50.340Z,20.10
2019-04-04T16:40:56.039Z,19.40
2019-04-04T16:51:01.955Z,18.90
2019-04-04T17:01:09.290Z,18.00
2019-04-04T17:11:15.723Z,17.20
2019-04-04T17:21:21.525Z,16.50
2019-04-04T17:31:27.322Z,16.20
2019-04-04T18:01:46.704Z,14.80
2019-04-04T18:11:52.842Z,14.90
2019-04-04T18:21:58.776Z,14.50
2019-04-04T18:32:04.891Z,14.40
2019-04-04T18:52:16.200Z,14.20
2019-04-04T19:02:22.188Z,14.20
2019-04-04T19:12:28.263Z,14.10
2019-04-04T19:22:34.278Z,14.40
2019-04-04T19:32:40.176Z,14.40
2019-04-04T19:42:46.155Z,14.40
2019-04-04T19:52:52.081Z,14.20
2019-04-04T20:02:57.887Z,14.00
2019-04-04T20:13:03.851Z,14.00
2019-04-04T20:23:09.795Z,13.80
2019-04-04T20:33:15.676Z,13.40
2019-04-04T20:43:21.650Z,13.30
2019-04-04T20:53:27.686Z,12.90
2019-04-04T21:03:33.383Z,12.40
2019-04-04T21:13:39.760Z,11.90
2019-04-04T21:23:45.361Z,11.70
2019-04-04T21:33:50.878Z,11.40
2019-04-04T21:44:08.256Z,11.20
2019-04-04T21:54:03.631Z,11.00
2019-04-04T22:04:09.150Z,10.80
2019-04-04T22:14:21.693Z,10.60
2019-04-04T22:24:22.439Z,10.60
2019-04-04T22:34:28.154Z,10.50
2019-04-04T22:44:35.084Z,10.40
2019-04-04T22:54:40.901Z,10.50
2019-04-04T23:04:46.434Z,10.50
2019-04-04T23:14:51.984Z,10.40
2019-04-04T23:24:57.498Z,10.30
2019-04-04T23:35:03.079Z,10.20
2019-04-04T23:45:09.166Z,10.30
2019-04-04T23:55:14.678Z,10.50
